Time;durP1;ratioP1;P1;durP2;ratioP2;P2;SDS_P1;SDS_P2;PMS_P1;PMS_P2;Temp;Humidity;BMP_temperature;BMP_pressure;BME280_temperature;BME280_humidity;BME280_pressure;Samples;Min_cycle;Max_cycle;Signal;HPM_P1;HPM_P2
2021/03/15 00:01:40;;;;;;;20.13;10.80;;;3.60;99.90;;;;;;5041876;28;21449;-68
2021/03/15 00:04:07;;;;;;;19.63;10.53;;;3.60;99.90;;;;;;5037502;28;20076;-68
2021/03/15 00:06:33;;;;;;;20.77;10.53;;;3.40;99.90;;;;;;5036191;28;20051;-69
2021/03/15 00:09:01;;;;;;;21.77;12.17;;;3.40;99.90;;;;;;5035602;28;20094;-69
2021/03/15 00:11:27;;;;;;;21.27;11.53;;;3.30;99.90;;;;;;5033822;28;20083;-69
2021/03/15 00:13:54;;;;;;;22.43;11.97;;;3.20;99.90;;;;;;5034179;28;20072;-69
2021/03/15 00:16:20;;;;;;;27.97;11.90;;;3.20;99.90;;;;;;5036596;28;20052;-69
2021/03/15 00:18:47;;;;;;;24.30;12.00;;;3.40;99.90;;;;;;5039710;28;20497;-68
2021/03/15 00:21:13;;;;;;;21.33;11.37;;;3.50;99.90;;;;;;5038535;28;20072;-68
2021/03/15 00:23:40;;;;;;;24.47;11.37;;;3.30;99.90;;;;;;5037856;28;20129;-69
2021/03/15 00:26:07;;;;;;;22.80;11.47;;;3.30;99.90;;;;;;5036723;28;20055;-68
2021/03/15 00:28:34;;;;;;;22.83;11.43;;;3.20;99.90;;;;;;5042348;28;20049;-68
2021/03/15 00:31:00;;;;;;;21.67;11.90;;;3.20;99.90;;;;;;5040692;28;20620;-68
2021/03/15 00:33:27;;;;;;;23.17;12.43;;;3.20;99.90;;;;;;5033145;28;20080;-68
2021/03/15 00:35:53;;;;;;;22.60;11.40;;;3.30;99.90;;;;;;5035493;28;20080;-68
2021/03/15 00:38:20;;;;;;;20.00;10.60;;;3.40;99.90;;;;;;5034498;28;20048;-68
2021/03/15 00:40:46;;;;;;;22.57;11.63;;;3.50;99.90;;;;;;5037816;28;20424;-68
2021/03/15 00:43:14;;;;;;;24.83;11.20;;;3.50;99.90;;;;;;5035001;28;20080;-69
2021/03/15 00:45:40;;;;;;;25.70;11.90;;;3.40;99.90;;;;;;5036258;28;20102;-69
2021/03/15 00:48:07;;;;;;;21.63;11.83;;;3.40;99.90;;;;;;5037510;28;20063;-69
2021/03/15 00:50:40;;;;;;;21.17;10.97;;;3.30;99.90;;;;;;5037470;28;20048;-68
2021/03/15 00:53:07;;;;;;;21.00;10.40;;;3.30;99.90;;;;;;5035566;28;20062;-68
2021/03/15 00:55:33;;;;;;;23.90;11.20;;;3.30;99.90;;;;;;5036760;28;20489;-68
2021/03/15 00:58:00;;;;;;;20.93;10.27;;;3.30;99.90;;;;;;5036195;28;20224;-68
2021/03/15 01:00:29;;;;;;;19.07;10.40;;;3.30;99.90;;;;;;5036929;28;20052;-68
2021/03/15 01:02:56;;;;;;;22.70;11.13;;;3.40;99.90;;;;;;5036865;28;20143;-68
2021/03/15 01:05:26;;;;;;;19.57;10.63;;;3.40;99.90;;;;;;5037796;28;20087;-68
2021/03/15 01:07:53;;;;;;;19.33;10.20;;;3.40;99.90;;;;;;5037281;28;20059;-68
2021/03/15 01:10:22;;;;;;;19.73;10.17;;;3.30;99.90;;;;;;5036666;28;20080;-68
2021/03/15 01:12:48;;;;;;;21.93;10.17;;;3.40;99.90;;;;;;5036442;28;20639;-68
2021/03/15 01:15:17;;;;;;;22.13;10.17;;;3.40;99.90;;;;;;5036107;28;20056;-68
2021/03/15 01:17:45;;;;;;;22.07;10.20;;;3.40;99.90;;;;;;5036378;28;20429;-68
2021/03/15 01:20:12;;;;;;;21.67;10.17;;;3.30;99.90;;;;;;5037009;28;20075;-68
2021/03/15 01:22:39;;;;;;;19.90;9.30;;;3.40;99.90;;;;;;5035715;28;20083;-68
2021/03/15 01:25:07;;;;;;;21.00;10.50;;;3.40;99.90;;;;;;5037110;28;20049;-68
2021/03/15 01:27:34;;;;;;;22.20;9.33;;;3.40;99.90;;;;;;5033051;28;20084;-68
2021/03/15 01:30:01;;;;;;;20.03;10.23;;;3.40;99.90;;;;;;5033968;28;20075;-68
2021/03/15 01:32:27;;;;;;;21.83;9.43;;;3.30;99.90;;;;;;5046609;28;20059;-68
2021/03/15 01:34:54;;;;;;;17.10;8.90;;;3.30;99.90;;;;;;5037883;28;20052;-68
2021/03/15 01:37:21;;;;;;;18.67;8.80;;;3.40;99.90;;;;;;5037164;28;20048;-68
2021/03/15 01:39:47;;;;;;;24.50;9.40;;;3.30;99.90;;;;;;5038521;28;20134;-68
2021/03/15 01:42:14;;;;;;;19.60;9.07;;;3.30;99.90;;;;;;5036820;28;20079;-68
2021/03/15 01:44:40;;;;;;;19.47;8.20;;;3.30;99.90;;;;;;5035023;28;20100;-68
2021/03/15 01:47:07;;;;;;;20.17;8.70;;;3.30;99.90;;;;;;5036962;28;20088;-68
2021/03/15 01:49:33;;;;;;;20.10;9.30;;;3.30;99.90;;;;;;5036195;28;20090;-68
2021/03/15 01:52:01;;;;;;;17.40;8.93;;;3.50;99.90;;;;;;5033981;28;20060;-68
2021/03/15 01:54:28;;;;;;;18.80;8.67;;;3.40;99.90;;;;;;5033217;28;20101;-68
2021/03/15 01:56:55;;;;;;;19.70;8.63;;;3.40;99.90;;;;;;5037444;28;21453;-68
2021/03/15 01:59:22;;;;;;;17.23;8.80;;;3.50;99.90;;;;;;5035763;28;20036;-68
2021/03/15 02:01:49;;;;;;;15.93;7.90;;;3.50;99.90;;;;;;5034857;28;20159;-68
2021/03/15 02:04:16;;;;;;;19.57;8.70;;;3.50;99.90;;;;;;5033476;28;20048;-68
2021/03/15 02:06:43;;;;;;;15.83;8.17;;;3.50;99.90;;;;;;5034962;28;20056;-68
2021/03/15 02:09:11;;;;;;;16.27;6.93;;;3.60;99.90;;;;;;5034759;28;20161;-68
2021/03/15 02:11:47;;;;;;;21.90;7.37;;;3.60;99.90;;;;;;5035087;28;20048;-68
2021/03/15 02:14:25;;;;;;;14.07;6.57;;;3.70;99.90;;;;;;5032978;28;20048;-68
2021/03/15 02:16:57;;;;;;;12.90;5.60;;;3.60;99.90;;;;;;5034717;28;20048;-68
2021/03/15 02:20:05;;;;;;;16.73;5.97;;;3.70;99.90;;;;;;5028245;28;20099;-68
2021/03/15 02:22:57;;;;;;;16.95;6.60;;;3.60;99.90;;;;;;5033018;28;20049;-68
2021/03/15 02:26:10;;;;;;;12.53;5.40;;;3.60;99.90;;;;;;5034712;28;20052;-68
2021/03/15 02:29:14;;;;;;;13.00;5.43;;;3.60;99.90;;;;;;5031088;28;20052;-68
2021/03/15 02:32:19;;;;;;;12.27;5.57;;;3.60;99.90;;;;;;5034758;28;20132;-68
2021/03/15 02:35:07;;;;;;;13.40;5.60;;;3.70;99.90;;;;;;5034006;28;20053;-68
2021/03/15 02:37:36;;;;;;;11.00;5.87;;;3.70;99.90;;;;;;5034361;28;20520;-68
2021/03/15 02:40:09;;;;;;;11.70;5.30;;;3.70;99.90;;;;;;5034814;28;20084;-69
2021/03/15 02:42:37;;;;;;;12.97;6.37;;;3.70;99.90;;;;;;5029260;28;20083;-69
2021/03/15 02:45:07;;;;;;;12.83;5.47;;;3.70;99.90;;;;;;5033789;28;20049;-69
2021/03/15 02:47:37;;;;;;;15.93;5.70;;;3.70;99.90;;;;;;5035597;28;20053;-69
2021/03/15 02:50:08;;;;;;;15.80;6.63;;;3.70;99.90;;;;;;5035131;28;20467;-69
2021/03/15 02:52:37;;;;;;;15.53;5.90;;;3.70;99.90;;;;;;5033637;28;20087;-69
2021/03/15 02:55:05;;;;;;;16.23;5.87;;;3.70;99.90;;;;;;5035182;28;20093;-69
2021/03/15 02:57:34;;;;;;;17.37;6.43;;;3.70;99.90;;;;;;5034014;28;20063;-69
2021/03/15 03:00:00;;;;;;;13.27;6.17;;;3.80;99.90;;;;;;5033355;28;20048;-69
2021/03/15 03:02:29;;;;;;;15.23;5.90;;;3.90;99.90;;;;;;5032251;28;20072;-69
2021/03/15 03:04:57;;;;;;;13.17;6.37;;;4.00;99.90;;;;;;5033450;28;20044;-69
2021/03/15 03:07:26;;;;;;;14.33;6.80;;;3.90;99.90;;;;;;5033765;28;20516;-69
2021/03/15 03:09:54;;;;;;;14.93;6.50;;;4.00;99.90;;;;;;5033533;28;20076;-69
2021/03/15 03:12:21;;;;;;;19.83;6.30;;;3.90;99.90;;;;;;5032334;28;20060;-69
2021/03/15 03:14:50;;;;;;;11.50;6.27;;;3.90;99.90;;;;;;5034042;28;20052;-69
2021/03/15 03:17:18;;;;;;;15.47;6.40;;;4.00;99.90;;;;;;5032239;28;20095;-69
2021/03/15 03:19:47;;;;;;;13.90;7.17;;;4.00;99.90;;;;;;5032456;28;20059;-69
2021/03/15 03:22:16;;;;;;;11.57;6.67;;;3.80;99.90;;;;;;5032956;28;20083;-69
2021/03/15 03:24:46;;;;;;;17.07;6.70;;;3.80;99.90;;;;;;5031635;28;20091;-68
2021/03/15 03:27:14;;;;;;;14.03;6.60;;;3.80;99.90;;;;;;5032163;28;20956;-68
2021/03/15 03:29:41;;;;;;;15.07;6.90;;;3.80;99.90;;;;;;5028339;28;20041;-69
2021/03/15 03:32:08;;;;;;;15.00;7.57;;;3.80;99.90;;;;;;5031512;28;20052;-68
2021/03/15 03:34:35;;;;;;;13.83;7.57;;;3.80;99.90;;;;;;5031535;28;20055;-68
2021/03/15 03:37:02;;;;;;;17.43;7.03;;;3.90;99.90;;;;;;5032702;28;20084;-69
2021/03/15 03:39:28;;;;;;;15.53;8.07;;;3.80;99.90;;;;;;5032270;28;20051;-69
2021/03/15 03:41:55;;;;;;;17.20;7.50;;;3.80;99.90;;;;;;5032684;28;20049;-69
2021/03/15 03:44:22;;;;;;;16.17;8.07;;;3.80;99.90;;;;;;5030183;28;20657;-69
2021/03/15 03:46:48;;;;;;;16.13;7.37;;;3.90;99.90;;;;;;5033119;28;20893;-68
2021/03/15 03:49:15;;;;;;;15.50;8.17;;;3.90;99.90;;;;;;5032034;28;20048;-69
2021/03/15 03:51:46;;;;;;;19.30;8.83;;;3.90;99.90;;;;;;5032650;28;20756;-68
2021/03/15 03:54:18;;;;;;;18.13;7.90;;;3.90;99.90;;;;;;5030273;28;20052;-68
2021/03/15 03:56:50;;;;;;;16.27;7.97;;;3.90;99.90;;;;;;5033675;28;20048;-68
2021/03/15 03:59:21;;;;;;;16.33;8.40;;;3.80;99.90;;;;;;5032822;28;20429;-68
2021/03/15 04:01:51;;;;;;;17.30;8.10;;;4.00;99.90;;;;;;5041865;28;20044;-68
2021/03/15 04:04:20;;;;;;;14.80;8.33;;;4.00;99.90;;;;;;5043386;28;20070;-69
2021/03/15 04:06:49;;;;;;;17.47;9.47;;;4.00;99.90;;;;;;5043977;28;20072;-69
2021/03/15 04:09:24;;;;;;;14.83;8.83;;;4.00;99.90;;;;;;5042017;28;20056;-69
2021/03/15 04:11:54;;;;;;;19.50;9.20;;;4.00;99.90;;;;;;5044133;28;20056;-69
2021/03/15 04:14:26;;;;;;;19.03;8.57;;;4.00;99.90;;;;;;5042214;28;20052;-69
2021/03/15 04:16:54;;;;;;;15.43;8.50;;;4.10;99.90;;;;;;5042119;28;20052;-68
2021/03/15 04:19:26;;;;;;;17.67;8.43;;;4.00;99.90;;;;;;5043207;28;20099;-68
2021/03/15 04:21:57;;;;;;;18.70;8.77;;;3.90;99.90;;;;;;5037848;28;20041;-68
2021/03/15 04:24:24;;;;;;;15.10;8.63;;;3.90;99.90;;;;;;5033646;28;20049;-68
2021/03/15 04:26:52;;;;;;;17.87;9.07;;;4.00;99.90;;;;;;5033735;28;20067;-68
2021/03/15 04:29:20;;;;;;;18.50;8.83;;;3.90;99.90;;;;;;5040356;28;20045;-68
2021/03/15 04:31:48;;;;;;;16.63;8.17;;;3.90;99.90;;;;;;5038357;28;20063;-68
2021/03/15 04:34:15;;;;;;;15.40;8.03;;;4.00;99.90;;;;;;5038805;28;20053;-68
2021/03/15 04:36:43;;;;;;;16.63;8.93;;;3.90;99.90;;;;;;5036408;28;20115;-68
2021/03/15 04:39:11;;;;;;;21.00;9.87;;;3.90;99.90;;;;;;5031164;28;20131;-68
2021/03/15 04:41:37;;;;;;;21.33;9.50;;;3.80;99.90;;;;;;5031885;28;20485;-68
2021/03/15 04:44:06;;;;;;;16.80;9.23;;;3.80;99.90;;;;;;5030145;28;20075;-68
2021/03/15 04:46:33;;;;;;;22.50;9.77;;;3.80;99.90;;;;;;5031966;28;20089;-68
2021/03/15 04:49:06;;;;;;;17.67;8.93;;;3.70;99.90;;;;;;5031216;28;20057;-68
2021/03/15 04:51:34;;;;;;;16.00;9.27;;;3.80;99.90;;;;;;5031588;28;20082;-68
2021/03/15 04:54:01;;;;;;;21.40;10.87;;;3.70;99.90;;;;;;5030325;28;20048;-68
2021/03/15 04:56:29;;;;;;;18.67;9.73;;;3.80;99.90;;;;;;5032461;28;20078;-68
2021/03/15 04:58:58;;;;;;;20.07;10.77;;;3.90;99.90;;;;;;5032021;28;20049;-68
2021/03/15 05:01:28;;;;;;;17.97;9.93;;;4.00;99.90;;;;;;5033395;28;20045;-68
2021/03/15 05:03:57;;;;;;;24.10;11.53;;;4.00;99.90;;;;;;5034799;28;20129;-68
2021/03/15 05:06:25;;;;;;;18.50;10.00;;;3.80;99.90;;;;;;5035613;28;20044;-68
2021/03/15 05:08:55;;;;;;;20.53;10.27;;;4.00;99.90;;;;;;5034986;28;20044;-68
2021/03/15 05:11:25;;;;;;;20.37;11.00;;;3.90;99.90;;;;;;5035412;28;20261;-68
2021/03/15 05:13:52;;;;;;;20.70;10.80;;;3.90;99.90;;;;;;5033573;28;20869;-68
2021/03/15 05:16:19;;;;;;;22.63;10.77;;;4.00;99.90;;;;;;5034013;28;20703;-68
2021/03/15 05:18:47;;;;;;;18.67;10.97;;;3.90;99.90;;;;;;5035524;28;20056;-68
2021/03/15 05:21:13;;;;;;;20.03;11.17;;;4.00;99.90;;;;;;5034098;28;20052;-68
2021/03/15 05:23:41;;;;;;;23.53;13.17;;;4.00;99.90;;;;;;5034160;28;20132;-68
2021/03/15 05:26:08;;;;;;;22.40;11.27;;;4.10;99.90;;;;;;5034679;28;20132;-68
2021/03/15 05:28:36;;;;;;;21.17;11.57;;;4.00;99.90;;;;;;5034868;28;20106;-68
2021/03/15 05:31:04;;;;;;;20.77;11.70;;;3.90;99.90;;;;;;5032098;28;20091;-68
2021/03/15 05:33:35;;;;;;;24.07;11.77;;;4.00;99.90;;;;;;5031348;28;20076;-68
2021/03/15 05:36:02;;;;;;;22.13;11.17;;;3.90;99.90;;;;;;5034390;28;20055;-68
2021/03/15 05:38:28;;;;;;;20.73;11.90;;;3.90;99.90;;;;;;5034969;28;20064;-68
2021/03/15 05:40:58;;;;;;;21.23;10.83;;;3.90;99.90;;;;;;5037335;28;20053;-68
2021/03/15 05:43:49;;;;;;;20.60;11.20;;;3.90;99.90;;;;;;5034777;28;20048;-68
2021/03/15 05:46:58;;;;;;;22.27;11.93;;;4.00;99.90;;;;;;5034783;28;20135;-68
2021/03/15 05:50:01;;;;;;;21.83;11.60;;;4.00;99.90;;;;;;5035438;28;20044;-68
2021/03/15 05:52:57;;;;;;;24.33;11.70;;;4.00;99.90;;;;;;5034537;28;20052;-69
2021/03/15 05:55:45;;;;;;;23.60;12.17;;;4.00;99.90;;;;;;5036100;28;20056;-69
2021/03/15 05:58:47;;;;;;;20.60;12.30;;;4.00;99.90;;;;;;5037028;28;20049;-69
2021/03/15 06:01:35;;;;;;;17.63;10.90;;;4.10;99.90;;;;;;5035446;28;20052;-69
2021/03/15 06:04:53;;;;;;;22.17;10.73;;;4.10;99.90;;;;;;5034655;28;20048;-69
2021/03/15 06:07:24;;;;;;;19.70;10.53;;;4.20;99.90;;;;;;5035418;28;20080;-71
2021/03/15 06:10:00;;;;;;;22.20;12.37;;;4.10;99.90;;;;;;5036471;28;20263;-69
2021/03/15 06:12:36;;;;;;;20.20;11.45;;;4.10;99.90;;;;;;5032159;28;20083;-69
2021/03/15 06:15:05;;;;;;;22.98;11.55;;;4.10;99.90;;;;;;5035698;28;20105;-68
2021/03/15 06:17:34;;;;;;;24.70;11.20;;;4.10;99.90;;;;;;5035500;28;20101;-69
2021/03/15 06:20:03;;;;;;;22.07;11.93;;;4.10;99.90;;;;;;5034322;28;20131;-69
2021/03/15 06:22:31;;;;;;;20.93;11.43;;;4.10;99.90;;;;;;5033628;28;20052;-69
2021/03/15 06:24:58;;;;;;;22.40;11.47;;;4.20;99.90;;;;;;5034619;28;20045;-69
2021/03/15 06:27:26;;;;;;;19.17;9.00;;;4.20;99.90;;;;;;5035704;28;20052;-68
2021/03/15 06:29:53;;;;;;;18.67;10.13;;;4.20;99.90;;;;;;5035506;28;20056;-69
2021/03/15 06:32:20;;;;;;;18.97;8.97;;;4.20;99.90;;;;;;5030536;28;20049;-69
2021/03/15 06:34:48;;;;;;;18.33;9.47;;;4.20;99.90;;;;;;5034041;28;20083;-69
2021/03/15 06:37:16;;;;;;;17.13;8.50;;;4.30;99.90;;;;;;5039236;28;20056;-69
2021/03/15 06:39:44;;;;;;;15.83;8.53;;;4.40;99.90;;;;;;5042809;28;20282;-69
2021/03/15 06:42:12;;;;;;;17.90;7.60;;;4.40;99.90;;;;;;5042811;28;20044;-69
2021/03/15 06:44:39;;;;;;;19.50;8.23;;;4.40;99.90;;;;;;5042894;28;20489;-69
2021/03/15 06:47:06;;;;;;;14.70;7.67;;;4.50;99.90;;;;;;5043622;28;20569;-69
2021/03/15 06:49:34;;;;;;;11.93;7.17;;;4.60;99.90;;;;;;5043517;28;20501;-69
2021/03/15 06:52:03;;;;;;;13.13;5.93;;;4.60;99.90;;;;;;5040160;28;21060;-69
2021/03/15 06:54:29;;;;;;;16.13;7.60;;;4.60;99.90;;;;;;5041274;28;20417;-69
2021/03/15 06:57:21;;;;;;;16.33;7.57;;;4.60;99.90;;;;;;5041061;28;20516;-69
2021/03/15 06:59:56;;;;;;;13.30;5.57;;;4.80;99.90;;;;;;5015614;28;20533;-69
2021/03/15 07:02:25;;;;;;;12.93;6.80;;;4.70;99.90;;;;;;5034853;28;20524;-69
2021/03/15 07:04:54;;;;;;;18.43;7.40;;;4.70;99.90;;;;;;5038199;28;20055;-69
2021/03/15 07:07:28;;;;;;;14.30;6.63;;;4.70;99.90;;;;;;5038933;28;20060;-69
2021/03/15 07:09:56;;;;;;;15.90;6.93;;;4.70;99.90;;;;;;5037947;28;20078;-69
2021/03/15 07:12:24;;;;;;;17.13;7.57;;;4.80;99.90;;;;;;5041816;28;20090;-69
2021/03/15 07:14:52;;;;;;;15.23;6.50;;;4.80;99.90;;;;;;5042848;28;20055;-69
2021/03/15 07:17:23;;;;;;;10.07;5.10;;;4.90;99.90;;;;;;5043546;28;20390;-70
2021/03/15 07:19:50;;;;;;;11.80;5.27;;;4.80;99.90;;;;;;5041676;28;20060;-70
2021/03/15 07:22:26;;;;;;;19.23;5.10;;;4.80;99.90;;;;;;5041188;28;20080;-70
2021/03/15 07:25:13;;;;;;;10.30;4.80;;;4.90;99.90;;;;;;5043193;28;20056;-70
2021/03/15 07:27:42;;;;;;;13.93;5.38;;;4.80;99.90;;;;;;5042732;28;20138;-70
2021/03/15 07:30:33;;;;;;;12.80;5.10;;;4.90;99.90;;;;;;5042859;28;20422;-71
2021/03/15 07:33:02;;;;;;;13.03;5.23;;;5.00;99.90;;;;;;5039451;28;21088;-70
2021/03/15 07:35:31;;;;;;;9.20;3.90;;;5.00;99.90;;;;;;5037989;28;20048;-66
2021/03/15 07:37:58;;;;;;;7.67;3.50;;;4.90;99.90;;;;;;5042490;28;20322;-67
2021/03/15 07:40:37;;;;;;;14.43;4.10;;;4.90;99.90;;;;;;5043039;28;20052;-67
2021/03/15 07:43:05;;;;;;;6.67;3.00;;;4.90;99.90;;;;;;5036132;28;20775;-67
2021/03/15 07:45:51;;;;;;;8.20;3.40;;;4.80;99.90;;;;;;5031133;28;20055;-68
2021/03/15 07:48:20;;;;;;;7.40;2.70;;;4.90;99.90;;;;;;5030915;28;20139;-67
2021/03/15 07:51:00;;;;;;;7.57;3.03;;;4.90;99.90;;;;;;5030194;28;20090;-67
2021/03/15 07:53:39;;;;;;;6.53;2.83;;;5.00;99.90;;;;;;5032251;28;20279;-67
2021/03/15 07:56:07;;;;;;;9.70;3.10;;;4.90;99.90;;;;;;5029688;28;20052;-67
2021/03/15 07:58:34;;;;;;;8.07;2.67;;;4.90;99.90;;;;;;5036143;28;20393;-67
2021/03/15 08:01:03;;;;;;;12.33;2.80;;;5.00;99.90;;;;;;5044821;28;20060;-67
2021/03/15 08:03:29;;;;;;;4.97;2.53;;;4.90;99.90;;;;;;5044705;28;20394;-67
2021/03/15 08:05:57;;;;;;;6.70;2.43;;;4.80;99.90;;;;;;5047819;28;20056;-67
2021/03/15 08:08:24;;;;;;;8.37;2.70;;;4.90;99.90;;;;;;5045125;28;20138;-67
2021/03/15 08:10:53;;;;;;;8.17;3.00;;;5.00;99.90;;;;;;5045982;28;20049;-67
2021/03/15 08:13:21;;;;;;;6.10;2.70;;;5.00;99.90;;;;;;5043559;28;20110;-67
2021/03/15 08:15:50;;;;;;;5.97;2.40;;;5.10;99.90;;;;;;5045345;28;20083;-67
2021/03/15 08:18:22;;;;;;;7.00;2.60;;;4.90;99.90;;;;;;5044694;28;20145;-67
2021/03/15 08:20:51;;;;;;;10.20;2.80;;;4.90;99.90;;;;;;5044864;28;20499;-67
2021/03/15 08:23:19;;;;;;;10.43;2.60;;;4.80;99.90;;;;;;5044232;28;20040;-67
2021/03/15 08:25:47;;;;;;;10.50;3.00;;;4.80;99.90;;;;;;5045661;28;20582;-67
2021/03/15 08:28:15;;;;;;;8.77;3.10;;;4.70;99.90;;;;;;5046109;28;20084;-67
2021/03/15 08:30:48;;;;;;;9.03;3.23;;;4.60;99.90;;;;;;5045683;28;20105;-67
2021/03/15 08:33:16;;;;;;;9.90;3.80;;;4.60;99.90;;;;;;5044207;28;20401;-67
2021/03/15 08:35:43;;;;;;;12.63;3.90;;;4.50;99.90;;;;;;5046717;28;20045;-67
2021/03/15 08:38:10;;;;;;;7.43;3.37;;;4.50;99.90;;;;;;5046954;28;20084;-65
2021/03/15 08:40:53;;;;;;;10.03;3.57;;;4.40;99.90;;;;;;5050187;28;20086;-66
2021/03/15 08:43:46;;;;;;;11.40;3.20;;;4.30;99.90;;;;;;5048770;28;20489;-66
2021/03/15 08:46:15;;;;;;;9.93;4.50;;;4.30;99.90;;;;;;5050518;28;20055;-66
2021/03/15 08:48:58;;;;;;;10.90;4.07;;;4.40;99.90;;;;;;5049995;28;20072;-66
2021/03/15 08:51:50;;;;;;;11.27;5.03;;;4.50;99.90;;;;;;5048841;28;20390;-66
2021/03/15 08:54:46;;;;;;;10.37;4.40;;;4.50;99.90;;;;;;5048408;28;20500;-66
2021/03/15 08:57:32;;;;;;;13.13;4.50;;;4.50;99.90;;;;;;5048915;28;20057;-65
2021/03/15 09:00:01;;;;;;;10.55;3.65;;;4.50;99.90;;;;;;5048215;28;20131;-66
2021/03/15 09:02:38;;;;;;;8.93;3.60;;;4.40;99.90;;;;;;5047245;28;20584;-66
2021/03/15 09:05:28;;;;;;;;;;;4.40;99.90;;;;;;5048887;28;20145;-66
2021/03/15 09:07:55;;;;;;;12.07;3.70;;;4.50;99.90;;;;;;5038317;28;20020;-66
2021/03/15 09:10:43;;;;;;;8.47;3.40;;;4.60;99.90;;;;;;5048694;28;20054;-66
2021/03/15 09:13:34;;;;;;;7.60;3.50;;;4.60;99.90;;;;;;5047631;28;20056;-66
2021/03/15 09:16:05;;;;;;;7.27;2.90;;;4.60;99.90;;;;;;5048857;28;20416;-66
2021/03/15 09:18:51;;;;;;;7.63;2.93;;;4.70;99.90;;;;;;5048510;28;20056;-65
2021/03/15 09:21:53;;;;;;;9.10;3.13;;;4.60;99.90;;;;;;5048788;28;20060;-66
2021/03/15 09:24:43;;;;;;;8.13;3.20;;;4.70;99.90;;;;;;5047344;28;20056;-66
2021/03/15 09:27:10;;;;;;;5.70;2.53;;;4.60;99.90;;;;;;5047544;28;20056;-66
2021/03/15 09:29:38;;;;;;;6.37;3.00;;;4.60;99.90;;;;;;5048097;28;20452;-65
2021/03/15 09:32:07;;;;;;;5.60;2.77;;;4.50;99.90;;;;;;5048242;28;20060;-66
2021/03/15 09:34:34;;;;;;;6.67;2.83;;;4.60;99.90;;;;;;5046324;28;20516;-65
2021/03/15 09:37:03;;;;;;;9.30;3.10;;;4.70;99.90;;;;;;5047624;28;20048;-66
2021/03/15 09:39:31;;;;;;;9.20;3.07;;;4.70;99.90;;;;;;5048425;28;20044;-66
2021/03/15 09:41:59;;;;;;;5.80;2.80;;;4.70;99.90;;;;;;5047719;28;20528;-66
2021/03/15 09:44:27;;;;;;;7.57;2.87;;;4.80;99.90;;;;;;5049259;28;20047;-66
2021/03/15 09:46:54;;;;;;;6.50;3.03;;;4.80;99.90;;;;;;5047491;28;20048;-66
2021/03/15 09:49:41;;;;;;;7.40;3.30;;;4.90;99.90;;;;;;5049304;28;20063;-66
2021/03/15 09:52:16;;;;;;;7.97;3.17;;;5.00;99.90;;;;;;5048787;28;20516;-66
2021/03/15 09:54:44;;;;;;;5.57;2.43;;;5.00;99.90;;;;;;5048473;28;20060;-66
2021/03/15 09:57:11;;;;;;;5.60;2.90;;;4.80;99.90;;;;;;5049749;28;20053;-66
2021/03/15 09:59:38;;;;;;;5.60;2.40;;;4.80;99.90;;;;;;5047788;28;20436;-66
2021/03/15 10:02:04;;;;;;;7.77;2.57;;;4.80;99.90;;;;;;5048964;28;20060;-66
2021/03/15 10:04:33;;;;;;;5.10;2.37;;;4.60;99.90;;;;;;5047458;28;20044;-66
2021/03/15 10:07:03;;;;;;;6.87;2.77;;;4.60;99.90;;;;;;5050245;28;20190;-66
2021/03/15 10:09:30;;;;;;;5.63;2.57;;;4.70;99.90;;;;;;5046496;28;20094;-65
2021/03/15 10:11:57;;;;;;;4.73;2.10;;;4.60;99.90;;;;;;5042463;28;20095;-66
2021/03/15 10:14:24;;;;;;;5.47;2.23;;;4.60;99.90;;;;;;5047408;28;20260;-66
2021/03/15 10:16:55;;;;;;;5.10;2.30;;;4.70;99.90;;;;;;5047861;28;20143;-66
2021/03/15 10:19:23;;;;;;;4.47;2.20;;;4.70;99.90;;;;;;5046630;28;20044;-66
2021/03/15 10:21:49;;;;;;;5.03;2.30;;;4.80;99.90;;;;;;5048058;28;20139;-66
2021/03/15 10:24:31;;;;;;;4.93;1.90;;;4.90;99.90;;;;;;5047311;28;20053;-66
2021/03/15 10:26:59;;;;;;;4.50;1.90;;;5.00;99.90;;;;;;5048322;28;20436;-66
2021/03/15 10:29:26;;;;;;;4.33;2.00;;;5.00;99.90;;;;;;5047683;28;20078;-66
2021/03/15 10:31:53;;;;;;;2.93;1.60;;;5.10;99.90;;;;;;5048246;28;20133;-66
2021/03/15 10:34:23;;;;;;;4.33;1.87;;;5.30;99.90;;;;;;5045694;28;20040;-66
2021/03/15 10:36:50;;;;;;;4.13;2.10;;;5.30;99.90;;;;;;5047841;28;20064;-66
2021/03/15 10:39:20;;;;;;;5.50;2.03;;;5.40;99.90;;;;;;5047968;28;20092;-66
2021/03/15 10:41:46;;;;;;;4.13;2.20;;;5.20;99.90;;;;;;5048348;28;20080;-65
2021/03/15 10:44:13;;;;;;;5.47;2.20;;;5.30;99.90;;;;;;5047584;28;20052;-66
2021/03/15 10:46:47;;;;;;;4.67;2.30;;;5.20;99.90;;;;;;5046831;28;20094;-66
2021/03/15 10:49:22;;;;;;;4.13;2.33;;;5.30;99.90;;;;;;5048404;28;20471;-66
2021/03/15 10:51:50;;;;;;;4.30;2.00;;;5.30;99.90;;;;;;5047497;28;20056;-66
2021/03/15 10:54:29;;;;;;;4.83;2.57;;;5.50;99.90;;;;;;5046927;28;20111;-66
2021/03/15 10:57:15;;;;;;;4.37;2.20;;;5.40;99.90;;;;;;5046953;28;20108;-66
2021/03/15 10:59:42;;;;;;;5.53;2.60;;;5.50;99.90;;;;;;5047493;28;20053;-66
2021/03/15 11:02:10;;;;;;;5.50;2.43;;;5.60;99.90;;;;;;5046481;28;20537;-66
2021/03/15 11:04:38;;;;;;;6.30;3.33;;;5.70;99.90;;;;;;5045939;28;20044;-66
2021/03/15 11:07:21;;;;;;;7.80;3.33;;;5.70;99.90;;;;;;5046626;28;20098;-66
2021/03/15 11:10:13;;;;;;;8.30;3.40;;;5.70;99.90;;;;;;5046044;28;20091;-66
2021/03/15 11:12:42;;;;;;;5.63;2.70;;;5.80;99.90;;;;;;5046039;28;20518;-66
2021/03/15 11:15:14;;;;;;;5.47;2.60;;;5.80;99.90;;;;;;5046679;28;20063;-66
2021/03/15 11:17:43;;;;;;;5.50;2.70;;;5.80;99.90;;;;;;5046649;28;20520;-66
2021/03/15 11:20:11;;;;;;;10.63;3.87;;;5.80;99.90;;;;;;5045396;28;20505;-66
2021/03/15 11:22:48;;;;;;;9.17;3.63;;;5.70;99.90;;;;;;5046652;28;20448;-66
2021/03/15 11:25:18;;;;;;;11.23;3.90;;;5.80;99.90;;;;;;5044683;28;20153;-66
2021/03/15 11:27:49;;;;;;;8.47;2.90;;;5.80;99.90;;;;;;5047806;28;20052;-66
2021/03/15 11:30:26;;;;;;;5.57;2.63;;;5.90;99.90;;;;;;5047018;28;20052;-66
2021/03/15 11:33:00;;;;;;;4.63;2.20;;;6.00;99.90;;;;;;5046410;28;20060;-66
2021/03/15 11:35:27;;;;;;;6.22;2.70;;;6.20;99.90;;;;;;5046519;28;20472;-66
2021/03/15 11:37:56;;;;;;;3.73;2.30;;;6.50;99.90;;;;;;5047349;28;20079;-66
2021/03/15 11:40:36;;;;;;;4.85;2.20;;;6.60;99.90;;;;;;5046553;28;20184;-66
2021/03/15 11:43:04;;;;;;;4.33;2.43;;;6.70;99.90;;;;;;5049056;28;20106;-66
2021/03/15 11:45:31;;;;;;;6.00;2.63;;;6.80;99.90;;;;;;5049749;28;20102;-66
2021/03/15 11:47:58;;;;;;;4.75;2.45;;;6.80;99.90;;;;;;5048152;28;20052;-65
2021/03/15 11:50:25;;;;;;;4.03;2.10;;;6.90;99.90;;;;;;5053191;28;20118;-65
2021/03/15 11:52:52;;;;;;;8.68;2.60;;;7.20;99.90;;;;;;5044898;28;20102;-65
2021/03/15 11:55:20;;;;;;;4.13;2.30;;;7.30;99.90;;;;;;5047456;28;20051;-66
2021/03/15 11:57:48;;;;;;;5.45;3.17;;;7.30;99.90;;;;;;5048111;28;20080;-67
2021/03/15 12:00:18;;;;;;;4.50;2.60;;;7.10;99.90;;;;;;5045191;28;20409;-65
2021/03/15 12:02:45;;;;;;;5.57;2.50;;;6.80;99.90;;;;;;5045535;28;20060;-66
2021/03/15 12:05:12;;;;;;;4.15;1.80;;;6.70;99.90;;;;;;5044994;28;20059;-66
2021/03/15 12:07:40;;;;;;;4.05;2.25;;;6.70;99.90;;;;;;5043189;28;20501;-66
2021/03/15 12:10:08;;;;;;;3.63;2.05;;;7.10;99.90;;;;;;5046052;28;20118;-66
2021/03/15 12:12:35;;;;;;;4.32;2.13;;;7.60;99.90;;;;;;5049308;28;20547;-66
2021/03/15 12:15:04;;;;;;;5.45;2.60;;;7.70;99.90;;;;;;5049364;28;20084;-66
2021/03/15 12:17:32;;;;;;;3.30;1.80;;;7.90;99.90;;;;;;5049360;28;20048;-66
2021/03/15 12:19:59;;;;;;;5.75;1.92;;;7.90;99.90;;;;;;5049546;28;20053;-66
2021/03/15 12:22:25;;;;;;;4.28;2.03;;;7.70;99.90;;;;;;5048409;28;20052;-66
2021/03/15 12:24:51;;;;;;;;;;;7.40;99.90;;;;;;5050165;28;20280;-65
2021/03/15 12:27:18;;;;;;;3.97;1.83;;;7.20;99.90;;;;;;5049470;28;20014;-66
2021/03/15 12:29:44;;;;;;;3.05;1.30;;;7.40;99.90;;;;;;5047753;28;20398;-64
2021/03/15 12:32:12;;;;;;;;;;;7.40;99.90;;;;;;5046908;28;20161;-64
2021/03/15 12:34:38;;;;;;;2.03;1.08;;;7.60;99.90;;;;;;5048402;28;20293;-65
2021/03/15 12:37:05;;;;;;;2.15;1.08;;;7.70;99.90;;;;;;5047946;28;20056;-64
2021/03/15 12:39:31;;;;;;;3.40;1.42;;;7.60;99.90;;;;;;5049093;28;20504;-65
2021/03/15 12:41:58;;;;;;;2.15;1.27;;;7.60;99.90;;;;;;5048030;28;20686;-65
2021/03/15 12:44:25;;;;;;;2.40;1.10;;;7.90;99.90;;;;;;5048635;28;20049;-65
2021/03/15 12:46:51;;;;;;;3.45;1.30;;;8.00;99.90;;;;;;5050554;28;20072;-67
2021/03/15 12:49:19;;;;;;;2.05;1.10;;;8.50;99.90;;;;;;5049144;28;20049;-65
2021/03/15 12:51:45;;;;;;;2.85;1.00;;;9.80;99.90;;;;;;5032688;28;20475;-66
2021/03/15 12:54:12;;;;;;;1.00;0.80;;;10.40;99.90;;;;;;5037234;28;20063;-65
2021/03/15 12:56:39;;;;;;;1.63;0.98;;;10.10;99.90;;;;;;5038500;28;20843;-66
2021/03/15 12:59:06;;;;;;;2.05;0.95;;;9.60;99.90;;;;;;5040332;28;20080;-65
2021/03/15 13:01:32;;;;;;;1.25;0.80;;;9.30;99.90;;;;;;5040059;28;20094;-66
2021/03/15 13:03:59;;;;;;;1.20;0.90;;;8.80;99.90;;;;;;5036610;28;20059;-63
2021/03/15 13:06:26;;;;;;;1.70;1.00;;;8.30;99.90;;;;;;5038478;28;20235;-66
2021/03/15 13:08:53;;;;;;;2.42;1.00;;;8.20;99.90;;;;;;5039463;28;20577;-65